Terminal Aerodrome Forecast
Issued by NWS Melbourne, FL

Home | Current Version | Previous Version | Text Only | Print | Product List | Glossary On
Versions: 1 2 3 4 5 6 7 8 9 10 11 12 13
000
FTUS42 KMLB 251726
TAFDAB
TAF
KDAB 251726Z 2518/2618 07013KT P6SM SCT040
     FM260100 09005KT P6SM SKC
     FM261200 05007KT P6SM SCT030 SCT250=

USA.gov is the U.S. government's official web portal to all federal, state and local government web resources and services.